sensor_id;sensor_type;location;lat;lon;timestamp;P1;durP1;ratioP1;P2;durP2;ratioP2
1837;SDS011;918;50.796;6.772;2023-04-25T00:01:01;7.00;;;5.07;;
1837;SDS011;918;50.796;6.772;2023-04-25T00:03:27;6.37;;;5.10;;
1837;SDS011;918;50.796;6.772;2023-04-25T00:05:54;6.20;;;5.60;;
1837;SDS011;918;50.796;6.772;2023-04-25T00:08:21;7.00;;;5.03;;
1837;SDS011;918;50.796;6.772;2023-04-25T00:10:47;6.57;;;5.90;;
1837;SDS011;918;50.796;6.772;2023-04-25T00:13:13;8.50;;;6.23;;
1837;SDS011;918;50.796;6.772;2023-04-25T00:15:39;11.40;;;5.77;;
1837;SDS011;918;50.796;6.772;2023-04-25T00:18:06;9.00;;;5.43;;
1837;SDS011;918;50.796;6.772;2023-04-25T00:20:31;7.40;;;5.30;;
1837;SDS011;918;50.796;6.772;2023-04-25T00:22:57;9.83;;;6.07;;
1837;SDS011;918;50.796;6.772;2023-04-25T00:25:22;8.50;;;6.00;;
1837;SDS011;918;50.796;6.772;2023-04-25T00:27:47;8.03;;;6.20;;
1837;SDS011;918;50.796;6.772;2023-04-25T00:30:13;9.90;;;5.10;;
1837;SDS011;918;50.796;6.772;2023-04-25T00:32:38;9.27;;;5.83;;
1837;SDS011;918;50.796;6.772;2023-04-25T00:35:04;10.73;;;5.70;;
1837;SDS011;918;50.796;6.772;2023-04-25T00:37:29;7.60;;;5.60;;
1837;SDS011;918;50.796;6.772;2023-04-25T00:39:55;11.73;;;6.73;;
1837;SDS011;918;50.796;6.772;2023-04-25T00:42:22;9.83;;;5.50;;
1837;SDS011;918;50.796;6.772;2023-04-25T00:44:47;7.93;;;5.53;;
1837;SDS011;918;50.796;6.772;2023-04-25T00:47:13;6.70;;;5.20;;
1837;SDS011;918;50.796;6.772;2023-04-25T00:49:38;10.77;;;5.67;;
1837;SDS011;918;50.796;6.772;2023-04-25T00:52:03;10.17;;;6.00;;
1837;SDS011;918;50.796;6.772;2023-04-25T00:54:29;8.00;;;6.13;;
1837;SDS011;918;50.796;6.772;2023-04-25T00:56:55;7.90;;;5.67;;
1837;SDS011;918;50.796;6.772;2023-04-25T00:59:20;10.00;;;6.40;;
1837;SDS011;918;50.796;6.772;2023-04-25T01:01:46;11.77;;;6.70;;
1837;SDS011;918;50.796;6.772;2023-04-25T01:04:11;11.33;;;6.20;;
1837;SDS011;918;50.796;6.772;2023-04-25T01:06:38;9.70;;;6.37;;
1837;SDS011;918;50.796;6.772;2023-04-25T01:09:03;8.93;;;6.30;;
1837;SDS011;918;50.796;6.772;2023-04-25T01:11:29;6.33;;;4.97;;
1837;SDS011;918;50.796;6.772;2023-04-25T01:13:54;6.43;;;5.30;;
1837;SDS011;918;50.796;6.772;2023-04-25T01:16:20;8.57;;;5.70;;
1837;SDS011;918;50.796;6.772;2023-04-25T01:18:45;7.97;;;6.30;;
1837;SDS011;918;50.796;6.772;2023-04-25T01:21:11;7.20;;;5.30;;
1837;SDS011;918;50.796;6.772;2023-04-25T01:23:38;7.93;;;5.47;;
1837;SDS011;918;50.796;6.772;2023-04-25T01:26:05;7.47;;;5.93;;
1837;SDS011;918;50.796;6.772;2023-04-25T01:28:32;8.13;;;6.00;;
1837;SDS011;918;50.796;6.772;2023-04-25T01:30:58;10.10;;;6.37;;
1837;SDS011;918;50.796;6.772;2023-04-25T01:33:23;7.83;;;6.30;;
1837;SDS011;918;50.796;6.772;2023-04-25T01:35:49;7.70;;;6.33;;
1837;SDS011;918;50.796;6.772;2023-04-25T01:38:14;7.47;;;6.43;;
1837;SDS011;918;50.796;6.772;2023-04-25T01:40:40;10.07;;;6.17;;
1837;SDS011;918;50.796;6.772;2023-04-25T01:43:06;11.17;;;6.97;;
1837;SDS011;918;50.796;6.772;2023-04-25T01:45:33;9.73;;;7.07;;
1837;SDS011;918;50.796;6.772;2023-04-25T01:47:58;9.33;;;6.17;;
1837;SDS011;918;50.796;6.772;2023-04-25T01:50:24;8.60;;;5.50;;
1837;SDS011;918;50.796;6.772;2023-04-25T01:52:50;12.57;;;8.10;;
1837;SDS011;918;50.796;6.772;2023-04-25T01:55:15;6.93;;;5.57;;
1837;SDS011;918;50.796;6.772;2023-04-25T01:57:40;9.07;;;5.47;;
1837;SDS011;918;50.796;6.772;2023-04-25T02:00:06;10.07;;;5.33;;
1837;SDS011;918;50.796;6.772;2023-04-25T02:02:33;8.83;;;5.63;;
1837;SDS011;918;50.796;6.772;2023-04-25T02:04:58;13.20;;;6.07;;
1837;SDS011;918;50.796;6.772;2023-04-25T02:07:23;8.97;;;5.97;;
1837;SDS011;918;50.796;6.772;2023-04-25T02:09:49;8.53;;;5.80;;
1837;SDS011;918;50.796;6.772;2023-04-25T02:12:14;7.37;;;4.50;;
1837;SDS011;918;50.796;6.772;2023-04-25T02:14:40;13.50;;;6.53;;
1837;SDS011;918;50.796;6.772;2023-04-25T02:17:05;8.10;;;5.27;;
1837;SDS011;918;50.796;6.772;2023-04-25T02:19:30;9.47;;;5.60;;
1837;SDS011;918;50.796;6.772;2023-04-25T02:21:56;7.93;;;5.37;;
1837;SDS011;918;50.796;6.772;2023-04-25T02:24:22;12.80;;;6.27;;
1837;SDS011;918;50.796;6.772;2023-04-25T02:26:47;10.80;;;5.97;;
1837;SDS011;918;50.796;6.772;2023-04-25T02:29:14;9.60;;;5.57;;
1837;SDS011;918;50.796;6.772;2023-04-25T02:31:40;9.63;;;5.80;;
1837;SDS011;918;50.796;6.772;2023-04-25T02:34:05;8.30;;;5.20;;
1837;SDS011;918;50.796;6.772;2023-04-25T02:36:30;10.20;;;5.63;;
1837;SDS011;918;50.796;6.772;2023-04-25T02:38:59;5.60;;;5.00;;
1837;SDS011;918;50.796;6.772;2023-04-25T02:41:25;7.43;;;5.47;;
1837;SDS011;918;50.796;6.772;2023-04-25T02:43:50;7.57;;;5.87;;
1837;SDS011;918;50.796;6.772;2023-04-25T02:46:15;13.50;;;5.70;;
1837;SDS011;918;50.796;6.772;2023-04-25T02:48:40;8.47;;;6.00;;
1837;SDS011;918;50.796;6.772;2023-04-25T02:51:06;9.93;;;5.90;;
1837;SDS011;918;50.796;6.772;2023-04-25T02:53:31;7.53;;;6.33;;
1837;SDS011;918;50.796;6.772;2023-04-25T02:55:56;9.20;;;6.00;;
1837;SDS011;918;50.796;6.772;2023-04-25T02:58:23;7.03;;;5.30;;
1837;SDS011;918;50.796;6.772;2023-04-25T03:00:48;9.17;;;5.50;;
1837;SDS011;918;50.796;6.772;2023-04-25T03:03:14;10.30;;;6.63;;
1837;SDS011;918;50.796;6.772;2023-04-25T03:05:42;13.97;;;6.17;;
1837;SDS011;918;50.796;6.772;2023-04-25T03:08:07;10.97;;;6.67;;
1837;SDS011;918;50.796;6.772;2023-04-25T03:10:32;16.47;;;6.50;;
1837;SDS011;918;50.796;6.772;2023-04-25T03:12:58;7.80;;;5.87;;
1837;SDS011;918;50.796;6.772;2023-04-25T03:15:23;16.73;;;5.97;;
1837;SDS011;918;50.796;6.772;2023-04-25T03:17:48;10.70;;;6.00;;
1837;SDS011;918;50.796;6.772;2023-04-25T03:20:13;10.30;;;6.10;;
1837;SDS011;918;50.796;6.772;2023-04-25T03:22:39;9.53;;;5.90;;
1837;SDS011;918;50.796;6.772;2023-04-25T03:25:05;10.47;;;5.97;;
1837;SDS011;918;50.796;6.772;2023-04-25T03:27:30;12.27;;;6.13;;
1837;SDS011;918;50.796;6.772;2023-04-25T03:29:55;7.67;;;5.70;;
1837;SDS011;918;50.796;6.772;2023-04-25T03:32:21;11.20;;;6.20;;
1837;SDS011;918;50.796;6.772;2023-04-25T03:34:46;9.07;;;6.57;;
1837;SDS011;918;50.796;6.772;2023-04-25T03:37:11;10.93;;;6.10;;
1837;SDS011;918;50.796;6.772;2023-04-25T03:39:37;7.80;;;6.23;;
1837;SDS011;918;50.796;6.772;2023-04-25T03:42:03;9.07;;;7.43;;
1837;SDS011;918;50.796;6.772;2023-04-25T03:44:28;10.90;;;5.60;;
1837;SDS011;918;50.796;6.772;2023-04-25T03:46:53;9.20;;;7.00;;
1837;SDS011;918;50.796;6.772;2023-04-25T03:49:19;11.33;;;6.60;;
1837;SDS011;918;50.796;6.772;2023-04-25T03:51:44;7.33;;;5.67;;
1837;SDS011;918;50.796;6.772;2023-04-25T03:54:09;9.93;;;5.90;;
1837;SDS011;918;50.796;6.772;2023-04-25T03:56:35;9.40;;;6.90;;
1837;SDS011;918;50.796;6.772;2023-04-25T03:59:00;10.73;;;6.80;;
1837;SDS011;918;50.796;6.772;2023-04-25T04:01:25;15.07;;;8.93;;
1837;SDS011;918;50.796;6.772;2023-04-25T04:03:50;9.70;;;6.30;;
1837;SDS011;918;50.796;6.772;2023-04-25T04:06:16;10.70;;;7.40;;
1837;SDS011;918;50.796;6.772;2023-04-25T04:08:41;9.90;;;5.53;;
1837;SDS011;918;50.796;6.772;2023-04-25T04:11:06;10.63;;;6.80;;
1837;SDS011;918;50.796;6.772;2023-04-25T04:13:31;7.53;;;5.97;;
1837;SDS011;918;50.796;6.772;2023-04-25T04:15:57;9.47;;;7.33;;
1837;SDS011;918;50.796;6.772;2023-04-25T04:18:22;9.00;;;6.60;;
1837;SDS011;918;50.796;6.772;2023-04-25T04:20:48;12.60;;;7.50;;
1837;SDS011;918;50.796;6.772;2023-04-25T04:23:13;13.20;;;7.50;;
1837;SDS011;918;50.796;6.772;2023-04-25T04:25:38;12.50;;;7.27;;
1837;SDS011;918;50.796;6.772;2023-04-25T04:28:04;8.73;;;5.80;;
1837;SDS011;918;50.796;6.772;2023-04-25T04:30:30;14.00;;;6.53;;
1837;SDS011;918;50.796;6.772;2023-04-25T04:32:56;12.27;;;6.20;;
1837;SDS011;918;50.796;6.772;2023-04-25T04:35:22;11.87;;;7.10;;
1837;SDS011;918;50.796;6.772;2023-04-25T04:37:48;8.80;;;6.30;;
1837;SDS011;918;50.796;6.772;2023-04-25T04:40:14;9.50;;;5.87;;
1837;SDS011;918;50.796;6.772;2023-04-25T04:42:43;11.60;;;6.80;;
1837;SDS011;918;50.796;6.772;2023-04-25T04:45:10;10.43;;;6.37;;
1837;SDS011;918;50.796;6.772;2023-04-25T04:47:36;8.47;;;5.90;;
1837;SDS011;918;50.796;6.772;2023-04-25T04:50:02;11.07;;;6.03;;
1837;SDS011;918;50.796;6.772;2023-04-25T04:52:28;10.93;;;6.67;;
1837;SDS011;918;50.796;6.772;2023-04-25T04:54:53;12.83;;;6.20;;
1837;SDS011;918;50.796;6.772;2023-04-25T04:57:18;9.70;;;5.90;;
1837;SDS011;918;50.796;6.772;2023-04-25T04:59:43;15.30;;;7.13;;
1837;SDS011;918;50.796;6.772;2023-04-25T05:02:09;14.50;;;6.83;;
1837;SDS011;918;50.796;6.772;2023-04-25T05:04:35;10.17;;;7.07;;
1837;SDS011;918;50.796;6.772;2023-04-25T05:07:00;13.70;;;8.07;;
1837;SDS011;918;50.796;6.772;2023-04-25T05:09:26;16.60;;;8.30;;
1837;SDS011;918;50.796;6.772;2023-04-25T05:11:51;11.60;;;7.40;;
1837;SDS011;918;50.796;6.772;2023-04-25T05:14:17;10.03;;;6.43;;
1837;SDS011;918;50.796;6.772;2023-04-25T05:16:42;12.20;;;8.53;;
1837;SDS011;918;50.796;6.772;2023-04-25T05:19:08;8.87;;;5.83;;
1837;SDS011;918;50.796;6.772;2023-04-25T05:21:33;9.60;;;6.53;;
1837;SDS011;918;50.796;6.772;2023-04-25T05:23:59;12.30;;;6.50;;
1837;SDS011;918;50.796;6.772;2023-04-25T05:26:25;10.53;;;6.17;;
1837;SDS011;918;50.796;6.772;2023-04-25T05:28:50;8.83;;;6.57;;
1837;SDS011;918;50.796;6.772;2023-04-25T05:31:16;14.07;;;7.17;;
1837;SDS011;918;50.796;6.772;2023-04-25T05:33:41;13.43;;;6.23;;
1837;SDS011;918;50.796;6.772;2023-04-25T05:36:06;8.30;;;5.50;;
1837;SDS011;918;50.796;6.772;2023-04-25T05:38:32;11.90;;;6.73;;
1837;SDS011;918;50.796;6.772;2023-04-25T05:40:57;12.30;;;7.60;;
1837;SDS011;918;50.796;6.772;2023-04-25T05:43:22;12.27;;;6.60;;
1837;SDS011;918;50.796;6.772;2023-04-25T05:45:48;8.53;;;6.37;;
1837;SDS011;918;50.796;6.772;2023-04-25T05:48:13;11.13;;;6.23;;
1837;SDS011;918;50.796;6.772;2023-04-25T05:50:38;8.43;;;5.17;;
1837;SDS011;918;50.796;6.772;2023-04-25T05:53:03;12.10;;;5.87;;
1837;SDS011;918;50.796;6.772;2023-04-25T05:55:30;11.03;;;6.00;;
1837;SDS011;918;50.796;6.772;2023-04-25T05:57:56;9.13;;;6.00;;
1837;SDS011;918;50.796;6.772;2023-04-25T06:00:21;11.63;;;5.97;;
1837;SDS011;918;50.796;6.772;2023-04-25T06:02:47;12.07;;;7.03;;
1837;SDS011;918;50.796;6.772;2023-04-25T06:05:13;11.47;;;5.43;;
1837;SDS011;918;50.796;6.772;2023-04-25T06:07:38;14.43;;;5.70;;
1837;SDS011;918;50.796;6.772;2023-04-25T06:10:03;11.77;;;5.50;;
1837;SDS011;918;50.796;6.772;2023-04-25T06:12:31;10.00;;;5.50;;
1837;SDS011;918;50.796;6.772;2023-04-25T06:14:57;15.17;;;6.57;;
1837;SDS011;918;50.796;6.772;2023-04-25T06:17:22;14.63;;;5.93;;
1837;SDS011;918;50.796;6.772;2023-04-25T06:19:48;14.53;;;6.63;;
1837;SDS011;918;50.796;6.772;2023-04-25T06:22:13;14.73;;;6.43;;
1837;SDS011;918;50.796;6.772;2023-04-25T06:24:38;10.63;;;6.27;;
1837;SDS011;918;50.796;6.772;2023-04-25T06:27:03;12.10;;;5.63;;
1837;SDS011;918;50.796;6.772;2023-04-25T06:29:29;12.53;;;6.20;;
1837;SDS011;918;50.796;6.772;2023-04-25T06:31:54;15.80;;;8.27;;
1837;SDS011;918;50.796;6.772;2023-04-25T06:34:19;9.07;;;5.90;;
1837;SDS011;918;50.796;6.772;2023-04-25T06:36:45;12.70;;;5.90;;
1837;SDS011;918;50.796;6.772;2023-04-25T06:39:10;7.67;;;5.77;;
1837;SDS011;918;50.796;6.772;2023-04-25T06:41:36;11.43;;;5.07;;
1837;SDS011;918;50.796;6.772;2023-04-25T06:44:01;11.53;;;5.97;;
1837;SDS011;918;50.796;6.772;2023-04-25T06:46:26;16.13;;;6.50;;
1837;SDS011;918;50.796;6.772;2023-04-25T06:48:52;11.20;;;4.47;;
1837;SDS011;918;50.796;6.772;2023-04-25T06:51:17;9.20;;;5.53;;
1837;SDS011;918;50.796;6.772;2023-04-25T06:53:42;9.73;;;5.17;;
1837;SDS011;918;50.796;6.772;2023-04-25T06:56:07;9.63;;;5.60;;
1837;SDS011;918;50.796;6.772;2023-04-25T06:58:33;8.07;;;4.37;;
1837;SDS011;918;50.796;6.772;2023-04-25T07:00:58;9.70;;;5.73;;
1837;SDS011;918;50.796;6.772;2023-04-25T07:03:23;15.87;;;5.00;;
1837;SDS011;918;50.796;6.772;2023-04-25T07:05:49;11.30;;;5.10;;
1837;SDS011;918;50.796;6.772;2023-04-25T07:08:15;10.43;;;5.30;;
1837;SDS011;918;50.796;6.772;2023-04-25T07:10:40;7.20;;;4.70;;
1837;SDS011;918;50.796;6.772;2023-04-25T07:13:05;7.50;;;5.33;;
1837;SDS011;918;50.796;6.772;2023-04-25T07:15:30;11.60;;;5.40;;
1837;SDS011;918;50.796;6.772;2023-04-25T07:17:56;11.03;;;4.87;;
1837;SDS011;918;50.796;6.772;2023-04-25T07:20:21;9.23;;;4.87;;
1837;SDS011;918;50.796;6.772;2023-04-25T07:22:46;11.03;;;5.70;;
1837;SDS011;918;50.796;6.772;2023-04-25T07:25:11;8.50;;;5.40;;
1837;SDS011;918;50.796;6.772;2023-04-25T07:27:37;14.97;;;6.37;;
1837;SDS011;918;50.796;6.772;2023-04-25T07:30:02;10.40;;;5.00;;
1837;SDS011;918;50.796;6.772;2023-04-25T07:32:28;7.33;;;5.40;;
1837;SDS011;918;50.796;6.772;2023-04-25T07:34:54;6.23;;;4.80;;
1837;SDS011;918;50.796;6.772;2023-04-25T07:37:19;11.40;;;5.30;;
1837;SDS011;918;50.796;6.772;2023-04-25T07:39:44;9.40;;;7.30;;
1837;SDS011;918;50.796;6.772;2023-04-25T07:42:13;9.07;;;5.20;;
1837;SDS011;918;50.796;6.772;2023-04-25T07:44:38;7.57;;;4.23;;
1837;SDS011;918;50.796;6.772;2023-04-25T07:47:05;8.60;;;4.93;;
1837;SDS011;918;50.796;6.772;2023-04-25T07:49:34;7.63;;;3.80;;
1837;SDS011;918;50.796;6.772;2023-04-25T07:52:00;8.17;;;4.00;;
1837;SDS011;918;50.796;6.772;2023-04-25T07:54:26;10.07;;;4.00;;
1837;SDS011;918;50.796;6.772;2023-04-25T07:56:51;9.90;;;4.03;;
1837;SDS011;918;50.796;6.772;2023-04-25T07:59:16;7.50;;;4.50;;
1837;SDS011;918;50.796;6.772;2023-04-25T08:01:41;9.43;;;3.67;;
1837;SDS011;918;50.796;6.772;2023-04-25T08:04:07;12.50;;;4.43;;
1837;SDS011;918;50.796;6.772;2023-04-25T08:06:32;9.60;;;4.60;;
1837;SDS011;918;50.796;6.772;2023-04-25T08:08:57;6.30;;;3.10;;
1837;SDS011;918;50.796;6.772;2023-04-25T08:11:23;5.83;;;3.97;;
1837;SDS011;918;50.796;6.772;2023-04-25T08:13:48;6.63;;;3.40;;
1837;SDS011;918;50.796;6.772;2023-04-25T08:16:13;8.57;;;3.97;;
1837;SDS011;918;50.796;6.772;2023-04-25T08:18:38;7.07;;;3.50;;
1837;SDS011;918;50.796;6.772;2023-04-25T08:21:04;5.67;;;3.50;;
1837;SDS011;918;50.796;6.772;2023-04-25T08:23:29;7.90;;;3.53;;
1837;SDS011;918;50.796;6.772;2023-04-25T08:25:54;6.90;;;3.40;;
1837;SDS011;918;50.796;6.772;2023-04-25T08:28:19;5.43;;;3.17;;
1837;SDS011;918;50.796;6.772;2023-04-25T08:30:44;12.43;;;3.70;;
1837;SDS011;918;50.796;6.772;2023-04-25T08:33:10;10.73;;;3.70;;
1837;SDS011;918;50.796;6.772;2023-04-25T08:35:36;7.20;;;3.47;;
1837;SDS011;918;50.796;6.772;2023-04-25T08:38:01;6.50;;;3.63;;
1837;SDS011;918;50.796;6.772;2023-04-25T08:40:27;8.27;;;2.90;;
1837;SDS011;918;50.796;6.772;2023-04-25T08:42:55;10.07;;;3.70;;
1837;SDS011;918;50.796;6.772;2023-04-25T08:45:22;4.50;;;3.27;;
1837;SDS011;918;50.796;6.772;2023-04-25T08:47:47;11.53;;;3.40;;
1837;SDS011;918;50.796;6.772;2023-04-25T08:50:13;4.33;;;2.80;;
1837;SDS011;918;50.796;6.772;2023-04-25T08:52:40;6.17;;;2.60;;
1837;SDS011;918;50.796;6.772;2023-04-25T08:55:09;6.60;;;2.63;;
1837;SDS011;918;50.796;6.772;2023-04-25T08:57:37;4.80;;;3.73;;
1837;SDS011;918;50.796;6.772;2023-04-25T09:00:03;8.43;;;2.53;;
1837;SDS011;918;50.796;6.772;2023-04-25T09:02:29;5.20;;;3.33;;
1837;SDS011;918;50.796;6.772;2023-04-25T09:04:54;7.77;;;3.43;;
1837;SDS011;918;50.796;6.772;2023-04-25T09:07:21;5.27;;;3.70;;
1837;SDS011;918;50.796;6.772;2023-04-25T09:09:46;6.73;;;3.40;;
1837;SDS011;918;50.796;6.772;2023-04-25T09:12:12;5.17;;;2.70;;
1837;SDS011;918;50.796;6.772;2023-04-25T09:14:38;5.87;;;3.20;;
1837;SDS011;918;50.796;6.772;2023-04-25T09:17:03;5.30;;;2.40;;
1837;SDS011;918;50.796;6.772;2023-04-25T09:19:30;3.80;;;2.33;;
1837;SDS011;918;50.796;6.772;2023-04-25T09:21:57;3.30;;;2.07;;
1837;SDS011;918;50.796;6.772;2023-04-25T09:26:57;4.20;;;2.23;;
1837;SDS011;918;50.796;6.772;2023-04-25T09:29:29;7.03;;;3.93;;
1837;SDS011;918;50.796;6.772;2023-04-25T09:34:48;5.50;;;2.90;;
1837;SDS011;918;50.796;6.772;2023-04-25T09:37:20;5.97;;;2.47;;
1837;SDS011;918;50.796;6.772;2023-04-25T09:39:52;5.73;;;2.80;;
1837;SDS011;918;50.796;6.772;2023-04-25T09:42:21;4.60;;;2.50;;
1837;SDS011;918;50.796;6.772;2023-04-25T09:44:49;5.03;;;2.43;;
1837;SDS011;918;50.796;6.772;2023-04-25T09:47:17;5.80;;;2.80;;
1837;SDS011;918;50.796;6.772;2023-04-25T09:49:42;6.80;;;2.57;;
1837;SDS011;918;50.796;6.772;2023-04-25T09:52:08;5.70;;;3.00;;
1837;SDS011;918;50.796;6.772;2023-04-25T09:54:35;5.43;;;2.20;;
1837;SDS011;918;50.796;6.772;2023-04-25T09:57:22;3.60;;;2.60;;
1837;SDS011;918;50.796;6.772;2023-04-25T09:59:48;7.87;;;3.50;;
1837;SDS011;918;50.796;6.772;2023-04-25T10:02:16;8.00;;;2.90;;
1837;SDS011;918;50.796;6.772;2023-04-25T10:04:44;6.73;;;2.70;;
1837;SDS011;918;50.796;6.772;2023-04-25T10:07:11;3.47;;;2.33;;
1837;SDS011;918;50.796;6.772;2023-04-25T10:09:37;5.87;;;3.23;;
1837;SDS011;918;50.796;6.772;2023-04-25T10:12:04;5.43;;;2.90;;
1837;SDS011;918;50.796;6.772;2023-04-25T10:14:31;6.37;;;2.70;;
1837;SDS011;918;50.796;6.772;2023-04-25T10:16:59;4.80;;;2.57;;
1837;SDS011;918;50.796;6.772;2023-04-25T10:19:25;6.90;;;2.73;;
1837;SDS011;918;50.796;6.772;2023-04-25T10:21:52;5.27;;;3.30;;
1837;SDS011;918;50.796;6.772;2023-04-25T10:24:20;6.60;;;2.50;;
1837;SDS011;918;50.796;6.772;2023-04-25T10:26:46;3.93;;;2.50;;
1837;SDS011;918;50.796;6.772;2023-04-25T10:29:12;4.70;;;2.70;;
1837;SDS011;918;50.796;6.772;2023-04-25T10:31:46;7.67;;;3.17;;
1837;SDS011;918;50.796;6.772;2023-04-25T10:34:15;9.23;;;2.70;;
1837;SDS011;918;50.796;6.772;2023-04-25T10:36:50;5.40;;;2.73;;
1837;SDS011;918;50.796;6.772;2023-04-25T10:39:24;6.17;;;2.87;;
1837;SDS011;918;50.796;6.772;2023-04-25T10:41:59;6.70;;;2.73;;
1837;SDS011;918;50.796;6.772;2023-04-25T10:44:27;7.13;;;3.00;;
1837;SDS011;918;50.796;6.772;2023-04-25T10:46:56;6.20;;;2.90;;
1837;SDS011;918;50.796;6.772;2023-04-25T10:52:29;4.70;;;2.80;;
1837;SDS011;918;50.796;6.772;2023-04-25T10:54:48;6.47;;;3.33;;
1837;SDS011;918;50.796;6.772;2023-04-25T10:57:37;5.27;;;4.10;;
1837;SDS011;918;50.796;6.772;2023-04-25T11:05:10;5.43;;;2.90;;
1837;SDS011;918;50.796;6.772;2023-04-25T11:07:44;6.60;;;3.03;;
1837;SDS011;918;50.796;6.772;2023-04-25T11:10:15;8.27;;;3.40;;
1837;SDS011;918;50.796;6.772;2023-04-25T11:12:41;3.80;;;2.80;;
1837;SDS011;918;50.796;6.772;2023-04-25T11:15:06;4.90;;;3.60;;
1837;SDS011;918;50.796;6.772;2023-04-25T11:17:33;3.70;;;2.37;;
1837;SDS011;918;50.796;6.772;2023-04-25T11:19:58;4.87;;;2.50;;
1837;SDS011;918;50.796;6.772;2023-04-25T11:22:24;5.30;;;2.70;;
1837;SDS011;918;50.796;6.772;2023-04-25T11:24:52;4.83;;;2.80;;
1837;SDS011;918;50.796;6.772;2023-04-25T11:27:17;3.87;;;2.40;;
1837;SDS011;918;50.796;6.772;2023-04-25T11:29:42;3.90;;;2.80;;
1837;SDS011;918;50.796;6.772;2023-04-25T11:32:08;6.47;;;3.47;;
1837;SDS011;918;50.796;6.772;2023-04-25T11:34:33;6.77;;;2.73;;
1837;SDS011;918;50.796;6.772;2023-04-25T11:36:59;6.73;;;3.27;;
1837;SDS011;918;50.796;6.772;2023-04-25T11:39:25;3.70;;;2.87;;
1837;SDS011;918;50.796;6.772;2023-04-25T11:41:52;5.10;;;2.70;;
1837;SDS011;918;50.796;6.772;2023-04-25T11:44:18;3.53;;;2.70;;
1837;SDS011;918;50.796;6.772;2023-04-25T11:46:44;4.43;;;2.87;;
1837;SDS011;918;50.796;6.772;2023-04-25T11:49:10;5.77;;;3.00;;
1837;SDS011;918;50.796;6.772;2023-04-25T11:51:42;4.40;;;2.60;;
1837;SDS011;918;50.796;6.772;2023-04-25T11:54:10;7.20;;;2.77;;
1837;SDS011;918;50.796;6.772;2023-04-25T11:56:36;3.50;;;2.60;;
1837;SDS011;918;50.796;6.772;2023-04-25T11:59:02;4.00;;;2.80;;
1837;SDS011;918;50.796;6.772;2023-04-25T12:01:30;5.83;;;3.03;;
1837;SDS011;918;50.796;6.772;2023-04-25T12:03:56;5.93;;;2.70;;
1837;SDS011;918;50.796;6.772;2023-04-25T12:06:25;6.23;;;3.10;;
1837;SDS011;918;50.796;6.772;2023-04-25T12:09:02;5.10;;;2.63;;
1837;SDS011;918;50.796;6.772;2023-04-25T12:11:32;5.70;;;3.23;;
1837;SDS011;918;50.796;6.772;2023-04-25T12:14:02;4.73;;;2.90;;
1837;SDS011;918;50.796;6.772;2023-04-25T12:16:28;5.87;;;2.77;;
1837;SDS011;918;50.796;6.772;2023-04-25T12:18:55;6.67;;;2.27;;
1837;SDS011;918;50.796;6.772;2023-04-25T12:21:21;6.77;;;2.83;;
1837;SDS011;918;50.796;6.772;2023-04-25T12:23:46;6.50;;;3.23;;
1837;SDS011;918;50.796;6.772;2023-04-25T12:26:11;5.13;;;2.87;;
1837;SDS011;918;50.796;6.772;2023-04-25T12:28:36;4.80;;;2.27;;
1837;SDS011;918;50.796;6.772;2023-04-25T12:31:05;5.00;;;2.30;;
1837;SDS011;918;50.796;6.772;2023-04-25T12:36:00;5.77;;;3.37;;
1837;SDS011;918;50.796;6.772;2023-04-25T12:38:35;6.43;;;2.60;;
1837;SDS011;918;50.796;6.772;2023-04-25T12:41:01;5.10;;;2.70;;
1837;SDS011;918;50.796;6.772;2023-04-25T12:43:26;4.17;;;3.20;;
1837;SDS011;918;50.796;6.772;2023-04-25T12:45:52;6.50;;;3.13;;
1837;SDS011;918;50.796;6.772;2023-04-25T12:48:19;4.63;;;2.43;;
1837;SDS011;918;50.796;6.772;2023-04-25T12:50:44;6.37;;;2.80;;
1837;SDS011;918;50.796;6.772;2023-04-25T12:53:13;5.03;;;2.83;;
1837;SDS011;918;50.796;6.772;2023-04-25T12:55:38;4.47;;;2.80;;
1837;SDS011;918;50.796;6.772;2023-04-25T12:58:03;4.73;;;2.83;;
1837;SDS011;918;50.796;6.772;2023-04-25T13:00:29;3.77;;;2.40;;
1837;SDS011;918;50.796;6.772;2023-04-25T13:02:54;3.97;;;2.57;;
1837;SDS011;918;50.796;6.772;2023-04-25T13:05:20;6.50;;;2.77;;
1837;SDS011;918;50.796;6.772;2023-04-25T13:07:45;6.73;;;3.10;;
1837;SDS011;918;50.796;6.772;2023-04-25T13:10:10;3.60;;;2.40;;
1837;SDS011;918;50.796;6.772;2023-04-25T13:12:36;7.90;;;2.37;;
1837;SDS011;918;50.796;6.772;2023-04-25T13:15:01;5.97;;;2.40;;
1837;SDS011;918;50.796;6.772;2023-04-25T13:17:26;3.53;;;2.30;;
1837;SDS011;918;50.796;6.772;2023-04-25T13:19:52;3.03;;;2.20;;
1837;SDS011;918;50.796;6.772;2023-04-25T13:22:17;2.90;;;2.33;;
1837;SDS011;918;50.796;6.772;2023-04-25T13:24:44;7.80;;;2.87;;
1837;SDS011;918;50.796;6.772;2023-04-25T13:27:10;4.17;;;2.70;;
1837;SDS011;918;50.796;6.772;2023-04-25T13:29:35;3.63;;;2.70;;
1837;SDS011;918;50.796;6.772;2023-04-25T13:32:01;4.73;;;2.40;;
1837;SDS011;918;50.796;6.772;2023-04-25T13:34:26;4.03;;;2.20;;
1837;SDS011;918;50.796;6.772;2023-04-25T13:36:52;6.63;;;2.87;;
1837;SDS011;918;50.796;6.772;2023-04-25T13:39:18;2.40;;;2.13;;
1837;SDS011;918;50.796;6.772;2023-04-25T13:41:43;4.23;;;2.37;;
1837;SDS011;918;50.796;6.772;2023-04-25T13:44:08;4.67;;;2.20;;
1837;SDS011;918;50.796;6.772;2023-04-25T13:46:33;3.93;;;2.47;;
1837;SDS011;918;50.796;6.772;2023-04-25T13:48:59;4.03;;;2.13;;
1837;SDS011;918;50.796;6.772;2023-04-25T13:51:24;4.07;;;2.10;;
1837;SDS011;918;50.796;6.772;2023-04-25T13:53:50;3.67;;;2.70;;
1837;SDS011;918;50.796;6.772;2023-04-25T13:56:16;3.63;;;2.63;;
1837;SDS011;918;50.796;6.772;2023-04-25T13:58:41;4.20;;;2.53;;
1837;SDS011;918;50.796;6.772;2023-04-25T14:01:06;3.13;;;2.23;;
1837;SDS011;918;50.796;6.772;2023-04-25T14:03:31;5.83;;;2.27;;
1837;SDS011;918;50.796;6.772;2023-04-25T14:05:57;3.07;;;2.50;;
1837;SDS011;918;50.796;6.772;2023-04-25T14:08:22;3.60;;;2.30;;
1837;SDS011;918;50.796;6.772;2023-04-25T14:10:47;3.73;;;2.07;;
1837;SDS011;918;50.796;6.772;2023-04-25T14:13:12;3.90;;;2.83;;
1837;SDS011;918;50.796;6.772;2023-04-25T14:15:38;3.13;;;2.57;;
1837;SDS011;918;50.796;6.772;2023-04-25T14:18:03;2.67;;;2.10;;
1837;SDS011;918;50.796;6.772;2023-04-25T14:20:29;3.80;;;2.40;;
1837;SDS011;918;50.796;6.772;2023-04-25T14:22:54;3.40;;;1.83;;
1837;SDS011;918;50.796;6.772;2023-04-25T14:25:21;2.70;;;1.80;;
1837;SDS011;918;50.796;6.772;2023-04-25T14:27:46;11.07;;;3.77;;
1837;SDS011;918;50.796;6.772;2023-04-25T14:30:14;3.50;;;1.73;;
1837;SDS011;918;50.796;6.772;2023-04-25T14:32:40;2.87;;;2.20;;
1837;SDS011;918;50.796;6.772;2023-04-25T14:35:06;6.13;;;1.73;;
1837;SDS011;918;50.796;6.772;2023-04-25T14:37:32;3.70;;;2.10;;
1837;SDS011;918;50.796;6.772;2023-04-25T14:39:57;2.67;;;1.90;;
1837;SDS011;918;50.796;6.772;2023-04-25T14:42:22;3.67;;;2.07;;
1837;SDS011;918;50.796;6.772;2023-04-25T14:44:48;2.30;;;1.87;;
1837;SDS011;918;50.796;6.772;2023-04-25T14:47:13;4.07;;;2.20;;
1837;SDS011;918;50.796;6.772;2023-04-25T14:49:38;2.40;;;1.97;;
1837;SDS011;918;50.796;6.772;2023-04-25T14:52:03;2.10;;;1.90;;
1837;SDS011;918;50.796;6.772;2023-04-25T14:54:29;3.60;;;2.27;;
1837;SDS011;918;50.796;6.772;2023-04-25T14:56:54;3.77;;;2.00;;
1837;SDS011;918;50.796;6.772;2023-04-25T14:59:19;2.53;;;2.20;;
1837;SDS011;918;50.796;6.772;2023-04-25T15:01:45;4.03;;;2.53;;
1837;SDS011;918;50.796;6.772;2023-04-25T15:04:10;4.80;;;2.20;;
1837;SDS011;918;50.796;6.772;2023-04-25T15:06:37;3.20;;;2.10;;
1837;SDS011;918;50.796;6.772;2023-04-25T15:09:03;5.80;;;2.30;;
1837;SDS011;918;50.796;6.772;2023-04-25T15:11:28;4.90;;;2.20;;
1837;SDS011;918;50.796;6.772;2023-04-25T15:13:53;4.00;;;2.17;;
1837;SDS011;918;50.796;6.772;2023-04-25T15:16:19;4.17;;;2.20;;
1837;SDS011;918;50.796;6.772;2023-04-25T15:18:45;3.37;;;2.20;;
1837;SDS011;918;50.796;6.772;2023-04-25T15:21:10;2.37;;;2.03;;
1837;SDS011;918;50.796;6.772;2023-04-25T15:23:35;2.27;;;2.07;;
1837;SDS011;918;50.796;6.772;2023-04-25T15:26:01;3.20;;;2.07;;
1837;SDS011;918;50.796;6.772;2023-04-25T15:28:26;2.47;;;1.87;;
1837;SDS011;918;50.796;6.772;2023-04-25T15:30:51;5.00;;;2.00;;
1837;SDS011;918;50.796;6.772;2023-04-25T15:33:16;4.23;;;2.43;;
1837;SDS011;918;50.796;6.772;2023-04-25T15:35:42;5.77;;;2.90;;